Time;durP1;ratioP1;P1;durP2;ratioP2;P2;SDS_P1;SDS_P2;PMS_P1;PMS_P2;Temp;Humidity;BMP_temperature;BMP_pressure;BME280_temperature;BME280_humidity;BME280_pressure;Samples;Min_cycle;Max_cycle;Signal;HPM_P1;HPM_P2
2021/08/21 00:17:10;;;;;;;8.02;4.78;;;;;;;;;;4790157;28;20229;-64
2021/08/21 00:19:36;;;;;;;13.62;5.50;;;;;;;;;;4217937;34;20122;-64
2021/08/21 00:22:02;;;;;;;16.27;5.53;;;;;;;;;;4219167;34;20133;-64
2021/08/21 00:24:28;;;;;;;15.35;6.32;;;;;;;;;;4219253;34;20122;-65
2021/08/21 00:26:54;;;;;;;10.35;5.65;;;;;;;;;;4210093;34;20465;-64
2021/08/21 00:29:20;;;;;;;10.25;5.40;;;;;;;;;;4205362;34;20600;-64
2021/08/21 00:31:45;;;;;;;11.23;5.32;;;;;;;;;;4205194;34;20184;-64
2021/08/21 00:34:11;;;;;;;9.98;5.45;;;;;;;;;;4207294;34;20454;-65
2021/08/21 00:36:37;;;;;;;16.85;6.07;;;;;;;;;;4206212;34;20117;-65
2021/08/21 00:39:03;;;;;;;12.45;5.85;;;;;;;;;;4219101;34;20144;-64
2021/08/21 00:41:29;;;;;;;8.93;5.03;;;;;;;;;;4205312;34;20156;-64
2021/08/21 00:43:55;;;;;;;12.05;5.70;;;;;;;;;;4218982;34;20537;-64
2021/08/21 00:46:21;;;;;;;10.48;5.30;;;;;;;;;;4206053;34;20219;-64
2021/08/21 00:48:47;;;;;;;12.50;4.95;;;;;;;;;;4218980;34;20117;-63
2021/08/21 00:51:13;;;;;;;14.15;6.15;;;;;;;;;;4217631;34;20129;-64
2021/08/21 00:53:38;;;;;;;12.93;5.70;;;;;;;;;;4205476;34;20210;-64
2021/08/21 00:56:04;;;;;;;12.07;5.47;;;;;;;;;;4192366;34;20221;-64
2021/08/21 00:58:32;;;;;;;13.35;5.65;;;;;;;;;;4204960;34;20130;-64
2021/08/21 01:00:58;;;;;;;11.95;5.37;;;;;;;;;;4192385;34;20553;-65
2021/08/21 01:03:24;;;;;;;15.20;5.85;;;;;;;;;;4205100;34;20133;-65
2021/08/21 01:05:50;;;;;;;12.05;5.57;;;;;;;;;;4192172;34;20137;-65
2021/08/21 01:08:16;;;;;;;10.63;4.95;;;;;;;;;;4204933;34;20197;-65
2021/08/21 01:10:41;;;;;;;15.05;5.47;;;;;;;;;;4204948;34;20136;-65
2021/08/21 01:13:07;;;;;;;8.95;5.03;;;;;;;;;;4205040;34;20537;-65
2021/08/21 01:15:33;;;;;;;14.10;4.60;;;;;;;;;;4192046;34;20129;-65
2021/08/21 01:17:59;;;;;;;19.05;5.47;;;;;;;;;;4197731;34;20116;-70
2021/08/21 01:20:26;;;;;;;15.38;6.00;;;;;;;;;;4219094;34;20110;-70
2021/08/21 01:22:53;;;;;;;9.77;5.60;;;;;;;;;;4218630;34;20118;-70
2021/08/21 01:25:22;;;;;;;11.70;5.20;;;;;;;;;;4218747;34;20509;-70
2021/08/21 01:27:48;;;;;;;9.93;5.57;;;;;;;;;;4205741;34;20101;-70
2021/08/21 01:30:14;;;;;;;16.27;5.82;;;;;;;;;;4218680;34;20140;-70
2021/08/21 01:32:40;;;;;;;14.40;5.70;;;;;;;;;;4218617;34;20209;-70
2021/08/21 01:35:06;;;;;;;10.30;5.50;;;;;;;;;;4218663;34;20152;-70
2021/08/21 01:37:32;;;;;;;19.85;6.40;;;;;;;;;;4218771;34;20615;-70
2021/08/21 01:39:58;;;;;;;13.40;5.62;;;;;;;;;;4218846;34;20143;-70
2021/08/21 01:42:24;;;;;;;14.27;5.20;;;;;;;;;;4205560;34;20220;-69
2021/08/21 01:44:51;;;;;;;13.13;5.82;;;;;;;;;;4218534;34;20529;-70
2021/08/21 01:47:17;;;;;;;11.63;5.87;;;;;;;;;;4218366;34;20132;-70
2021/08/21 01:49:43;;;;;;;13.40;5.62;;;;;;;;;;4205526;34;20125;-70
2021/08/21 01:52:10;;;;;;;15.32;5.45;;;;;;;;;;4218353;34;20457;-70
2021/08/21 01:54:36;;;;;;;14.38;6.15;;;;;;;;;;4220392;34;20115;-70
2021/08/21 01:57:03;;;;;;;10.00;5.22;;;;;;;;;;4220469;34;20145;-70
2021/08/21 01:59:29;;;;;;;11.02;6.03;;;;;;;;;;4220660;34;20113;-70
2021/08/21 02:01:55;;;;;;;13.27;5.70;;;;;;;;;;4220422;34;20090;-70
2021/08/21 02:04:21;;;;;;;9.73;5.22;;;;;;;;;;4220570;34;20089;-70
2021/08/21 02:06:47;;;;;;;13.55;5.93;;;;;;;;;;4220329;34;20117;-70
2021/08/21 02:09:16;;;;;;;13.13;5.65;;;;;;;;;;4220411;34;20533;-70
2021/08/21 02:11:43;;;;;;;10.80;5.60;;;;;;;;;;4220254;34;20153;-70
2021/08/21 02:14:09;;;;;;;13.52;5.28;;;;;;;;;;4220349;34;20543;-69
2021/08/21 02:16:35;;;;;;;10.52;6.12;;;;;;;;;;4220154;34;20109;-70
2021/08/21 02:19:01;;;;;;;13.82;6.80;;;;;;;;;;4220104;34;20205;-70
2021/08/21 02:21:27;;;;;;;12.60;5.45;;;;;;;;;;4220292;34;20201;-70
2021/08/21 02:23:55;;;;;;;12.73;6.53;;;;;;;;;;4220180;34;20117;-70
2021/08/21 02:26:21;;;;;;;14.35;5.85;;;;;;;;;;4220248;34;20105;-70
2021/08/21 02:28:46;;;;;;;13.90;5.87;;;;;;;;;;4207288;34;20513;-70
2021/08/21 02:31:12;;;;;;;18.00;5.60;;;;;;;;;;4220288;34;20114;-70
2021/08/21 02:33:38;;;;;;;14.50;4.97;;;;;;;;;;4207422;34;20105;-69
2021/08/21 02:36:04;;;;;;;12.55;6.03;;;;;;;;;;4220260;34;20136;-70
2021/08/21 02:38:31;;;;;;;10.63;5.62;;;;;;;;;;4220047;34;20542;-70
2021/08/21 02:40:57;;;;;;;10.48;5.55;;;;;;;;;;4220508;34;20124;-70
2021/08/21 02:43:23;;;;;;;13.45;6.15;;;;;;;;;;4220338;34;20090;-70
2021/08/21 02:45:49;;;;;;;12.30;5.70;;;;;;;;;;4207134;34;20149;-70
2021/08/21 02:48:15;;;;;;;11.50;5.55;;;;;;;;;;4219897;34;20128;-70
2021/08/21 02:50:41;;;;;;;10.82;5.53;;;;;;;;;;4220047;34;20248;-69
2021/08/21 02:53:07;;;;;;;9.75;5.37;;;;;;;;;;4219972;34;20553;-70
2021/08/21 02:55:33;;;;;;;13.95;5.57;;;;;;;;;;4207441;34;20136;-70
2021/08/21 02:57:59;;;;;;;10.73;5.93;;;;;;;;;;4220061;34;20213;-70
2021/08/21 03:00:25;;;;;;;15.73;5.62;;;;;;;;;;4219975;34;20248;-69
2021/08/21 03:02:51;;;;;;;14.45;5.55;;;;;;;;;;4220124;34;20117;-70
2021/08/21 03:05:17;;;;;;;13.88;5.65;;;;;;;;;;4219432;34;20208;-70
2021/08/21 03:07:42;;;;;;;10.63;6.12;;;;;;;;;;4220109;34;20101;-70
2021/08/21 03:10:09;;;;;;;12.90;5.93;;;;;;;;;;4220167;34;20193;-70
2021/08/21 03:12:35;;;;;;;9.50;5.50;;;;;;;;;;4219820;34;20093;-69
2021/08/21 03:15:01;;;;;;;13.13;6.07;;;;;;;;;;4220064;34;20143;-70
2021/08/21 03:17:27;;;;;;;9.38;4.87;;;;;;;;;;4206494;34;20121;-69
2021/08/21 03:19:53;;;;;;;15.27;5.65;;;;;;;;;;4220075;34;20648;-69
2021/08/21 03:22:19;;;;;;;12.90;5.68;;;;;;;;;;4219749;34;20097;-70
2021/08/21 03:24:45;;;;;;;18.27;5.30;;;;;;;;;;4219794;34;20101;-70
2021/08/21 03:27:11;;;;;;;13.02;6.10;;;;;;;;;;4219740;34;20118;-69
2021/08/21 03:29:37;;;;;;;16.37;5.35;;;;;;;;;;4219683;34;20608;-69
2021/08/21 03:32:03;;;;;;;11.95;5.22;;;;;;;;;;4219685;34;20204;-70
2021/08/21 03:34:29;;;;;;;14.77;5.68;;;;;;;;;;4219712;34;20223;-70
2021/08/21 03:36:55;;;;;;;14.15;4.97;;;;;;;;;;4219606;34;20197;-70
2021/08/21 03:39:21;;;;;;;12.60;6.37;;;;;;;;;;4219788;34;20664;-70
2021/08/21 03:41:47;;;;;;;13.15;5.45;;;;;;;;;;4206624;34;20120;-70
2021/08/21 03:44:13;;;;;;;12.77;6.37;;;;;;;;;;4206709;34;20505;-69
2021/08/21 03:46:39;;;;;;;10.90;6.15;;;;;;;;;;4219453;34;20116;-69
2021/08/21 03:49:05;;;;;;;12.35;6.18;;;;;;;;;;4219585;34;20533;-70
2021/08/21 03:51:31;;;;;;;13.38;5.87;;;;;;;;;;4219524;34;20113;-70
2021/08/21 03:53:57;;;;;;;14.52;5.78;;;;;;;;;;4219473;34;20497;-69
2021/08/21 03:56:22;;;;;;;11.23;5.57;;;;;;;;;;4219429;34;20141;-69
2021/08/21 03:58:48;;;;;;;15.57;5.62;;;;;;;;;;4219371;34;20205;-70
2021/08/21 04:01:14;;;;;;;11.50;5.47;;;;;;;;;;4219472;34;20132;-70
2021/08/21 04:03:40;;;;;;;16.90;6.00;;;;;;;;;;4219438;34;20521;-71
2021/08/21 04:06:10;;;;;;;11.55;5.93;;;;;;;;;;4219380;34;20231;-69
2021/08/21 04:08:36;;;;;;;15.70;7.25;;;;;;;;;;4206468;34;20102;-70
2021/08/21 04:11:02;;;;;;;25.48;7.22;;;;;;;;;;4219408;34;20220;-70
2021/08/21 04:13:28;;;;;;;18.83;7.65;;;;;;;;;;4219408;34;20105;-69
2021/08/21 04:15:55;;;;;;;19.90;6.72;;;;;;;;;;4219309;34;20445;-70
2021/08/21 04:18:21;;;;;;;15.07;6.35;;;;;;;;;;4219202;34;20101;-69
2021/08/21 04:20:47;;;;;;;12.35;5.87;;;;;;;;;;4219340;34;20216;-70
2021/08/21 04:23:13;;;;;;;9.52;5.68;;;;;;;;;;4206655;34;20141;-70
2021/08/21 04:25:39;;;;;;;13.50;5.85;;;;;;;;;;4206368;34;20148;-70
2021/08/21 04:28:05;;;;;;;16.67;5.78;;;;;;;;;;4219229;34;20126;-70
2021/08/21 04:30:30;;;;;;;14.55;5.87;;;;;;;;;;4219176;34;20129;-70
2021/08/21 04:32:56;;;;;;;12.77;5.28;;;;;;;;;;4219255;34;20578;-70
2021/08/21 04:35:22;;;;;;;16.12;6.35;;;;;;;;;;4219453;34;20126;-70
2021/08/21 04:37:48;;;;;;;13.07;6.40;;;;;;;;;;4219440;34;20105;-70
2021/08/21 04:40:14;;;;;;;14.07;5.75;;;;;;;;;;4219169;34;20155;-70
2021/08/21 04:42:40;;;;;;;12.73;5.78;;;;;;;;;;4219126;34;20540;-70
2021/08/21 04:45:07;;;;;;;13.93;6.12;;;;;;;;;;4219180;34;20152;-70
2021/08/21 04:47:33;;;;;;;16.65;6.30;;;;;;;;;;4218993;34;20109;-69
2021/08/21 04:49:59;;;;;;;21.50;6.10;;;;;;;;;;4219080;34;20117;-69
2021/08/21 04:52:25;;;;;;;12.35;5.82;;;;;;;;;;4219035;34;20109;-69
2021/08/21 04:54:51;;;;;;;9.82;5.97;;;;;;;;;;4218977;34;20139;-69
2021/08/21 04:57:17;;;;;;;16.52;5.62;;;;;;;;;;4218997;34;20552;-69
2021/08/21 04:59:43;;;;;;;13.18;7.12;;;;;;;;;;4218972;34;20239;-69
2021/08/21 05:02:09;;;;;;;16.02;5.47;;;;;;;;;;4218974;34;20110;-70
2021/08/21 05:04:35;;;;;;;13.98;5.97;;;;;;;;;;4218969;34;20118;-70
2021/08/21 05:07:01;;;;;;;13.75;6.18;;;;;;;;;;4218781;34;20567;-69
2021/08/21 05:09:27;;;;;;;14.25;6.55;;;;;;;;;;4218949;34;20129;-68
2021/08/21 05:11:53;;;;;;;12.93;6.93;;;;;;;;;;4218735;34;20196;-68
2021/08/21 05:14:18;;;;;;;16.90;6.60;;;;;;;;;;4205872;34;20136;-69
2021/08/21 05:16:46;;;;;;;17.67;6.72;;;;;;;;;;4205756;34;20113;-69
2021/08/21 05:19:33;;;;;;;14.10;6.18;;;;;;;;;;4218592;34;20209;-69
2021/08/21 05:22:20;;;;;;;15.25;5.95;;;;;;;;;;4218674;34;20176;-69
2021/08/21 05:24:45;;;;;;;16.90;6.47;;;;;;;;;;4218888;34;20177;-69
2021/08/21 05:27:11;;;;;;;13.32;6.00;;;;;;;;;;4218332;34;20449;-67
2021/08/21 05:29:37;;;;;;;22.35;6.68;;;;;;;;;;4205656;34;20117;-69
2021/08/21 05:32:04;;;;;;;16.05;7.12;;;;;;;;;;4205602;34;20123;-69
2021/08/21 05:34:30;;;;;;;11.40;6.37;;;;;;;;;;4205863;34;20192;-68
2021/08/21 05:36:56;;;;;;;20.20;6.65;;;;;;;;;;4218532;34;20121;-69
2021/08/21 05:39:22;;;;;;;21.25;6.55;;;;;;;;;;4218543;34;20525;-69
2021/08/21 05:41:47;;;;;;;15.40;7.10;;;;;;;;;;4218734;34;20120;-69
2021/08/21 05:44:13;;;;;;;19.87;6.28;;;;;;;;;;4218568;34;20545;-69
2021/08/21 05:46:39;;;;;;;14.30;5.43;;;;;;;;;;4205516;34;20609;-69
2021/08/21 05:49:05;;;;;;;16.95;5.85;;;;;;;;;;4218541;34;20481;-68
2021/08/21 05:51:31;;;;;;;9.63;6.10;;;;;;;;;;4205500;34;20616;-69
2021/08/21 05:53:57;;;;;;;19.60;7.07;;;;;;;;;;4218351;34;20313;-69
2021/08/21 05:56:23;;;;;;;14.90;5.80;;;;;;;;;;4218364;34;20232;-69
2021/08/21 05:58:49;;;;;;;19.00;5.90;;;;;;;;;;4205214;34;20139;-69
2021/08/21 06:01:15;;;;;;;13.35;6.45;;;;;;;;;;4218706;34;20114;-68
2021/08/21 06:03:41;;;;;;;15.32;5.55;;;;;;;;;;4218436;34;20106;-69
2021/08/21 06:06:11;;;;;;;10.40;6.15;;;;;;;;;;4218274;34;20473;-68
2021/08/21 06:08:38;;;;;;;18.95;6.40;;;;;;;;;;4218160;34;20132;-69
2021/08/21 06:11:04;;;;;;;17.27;6.85;;;;;;;;;;4218294;34;20089;-69
2021/08/21 06:13:30;;;;;;;19.42;7.00;;;;;;;;;;4218404;34;20113;-68
2021/08/21 06:15:56;;;;;;;16.10;5.97;;;;;;;;;;4218332;34;20097;-68
2021/08/21 06:18:22;;;;;;;13.48;5.45;;;;;;;;;;4218020;34;20102;-68
2021/08/21 06:20:48;;;;;;;11.95;5.15;;;;;;;;;;4218452;34;20167;-68
2021/08/21 06:23:14;;;;;;;12.90;5.93;;;;;;;;;;4218323;34;20189;-68
2021/08/21 06:25:40;;;;;;;15.88;6.15;;;;;;;;;;4218105;34;20148;-68
2021/08/21 06:28:06;;;;;;;16.58;6.47;;;;;;;;;;4204983;34;20117;-68
2021/08/21 06:30:32;;;;;;;14.75;6.22;;;;;;;;;;4218050;34;20220;-69
2021/08/21 06:32:58;;;;;;;31.73;7.55;;;;;;;;;;4205365;34;20113;-68
2021/08/21 06:35:24;;;;;;;16.27;6.22;;;;;;;;;;4218014;34;20446;-68
2021/08/21 06:37:49;;;;;;;15.40;6.32;;;;;;;;;;4217863;34;20224;-69
2021/08/21 06:40:15;;;;;;;13.30;6.12;;;;;;;;;;4218830;34;20126;-68
2021/08/21 06:42:41;;;;;;;15.43;6.62;;;;;;;;;;4220101;34;20505;-68
2021/08/21 06:45:07;;;;;;;15.68;7.07;;;;;;;;;;4220172;34;20133;-68
2021/08/21 06:47:34;;;;;;;13.00;5.97;;;;;;;;;;4207269;34;20144;-68
2021/08/21 06:49:59;;;;;;;13.13;5.97;;;;;;;;;;4220378;34;20125;-68
2021/08/21 06:52:25;;;;;;;18.92;6.90;;;;;;;;;;4219979;34;20232;-68
2021/08/21 06:54:51;;;;;;;25.92;7.18;;;;;;;;;;4220127;34;20114;-68
2021/08/21 06:57:17;;;;;;;20.23;6.97;;;;;;;;;;4219947;34;20124;-69
2021/08/21 06:59:43;;;;;;;14.73;6.10;;;;;;;;;;4219966;34;20129;-69
2021/08/21 07:02:09;;;;;;;14.18;6.70;;;;;;;;;;4219808;34;20113;-69
2021/08/21 07:04:35;;;;;;;21.60;5.65;;;;;;;;;;4219955;34;20135;-69
2021/08/21 07:07:02;;;;;;;23.87;6.43;;;;;;;;;;4219802;34;20508;-69
2021/08/21 07:09:28;;;;;;;19.58;6.60;;;;;;;;;;4219962;34;20520;-69
2021/08/21 07:11:54;;;;;;;18.05;7.20;;;;;;;;;;4220012;34;20181;-68
2021/08/21 07:14:20;;;;;;;14.87;7.70;;;;;;;;;;4219956;34;20137;-68
2021/08/21 07:16:45;;;;;;;22.02;6.80;;;;;;;;;;4206780;34;20119;-68
2021/08/21 07:19:11;;;;;;;12.60;6.60;;;;;;;;;;4219613;34;20232;-68
2021/08/21 07:21:37;;;;;;;10.68;6.18;;;;;;;;;;4219650;34;20129;-68
2021/08/21 07:24:03;;;;;;;16.40;6.72;;;;;;;;;;4219980;34;20232;-68
2021/08/21 07:26:29;;;;;;;11.12;5.55;;;;;;;;;;4219692;34;20549;-68
2021/08/21 07:28:55;;;;;;;17.25;5.60;;;;;;;;;;4219686;34;20129;-68
2021/08/21 07:31:21;;;;;;;13.43;5.65;;;;;;;;;;4219707;34;20105;-68
2021/08/21 07:33:47;;;;;;;14.00;6.30;;;;;;;;;;4219643;34;20089;-68
2021/08/21 07:36:13;;;;;;;15.48;6.40;;;;;;;;;;4219686;34;20110;-68
2021/08/21 07:38:39;;;;;;;15.32;6.68;;;;;;;;;;4219440;34;20090;-68
2021/08/21 07:41:05;;;;;;;16.48;6.85;;;;;;;;;;4219576;34;20227;-68
2021/08/21 07:43:31;;;;;;;11.57;5.37;;;;;;;;;;4219464;34;20105;-68
2021/08/21 07:45:57;;;;;;;11.50;5.55;;;;;;;;;;4219530;34;20631;-68
2021/08/21 07:48:23;;;;;;;11.35;5.65;;;;;;;;;;4206784;34;20213;-68
2021/08/21 07:50:49;;;;;;;12.13;6.37;;;;;;;;;;4219232;34;20156;-67
2021/08/21 07:53:15;;;;;;;16.42;6.55;;;;;;;;;;4219609;34;20625;-67
2021/08/21 07:55:41;;;;;;;19.50;6.40;;;;;;;;;;4219508;34;20116;-67
2021/08/21 07:58:07;;;;;;;16.90;5.68;;;;;;;;;;4219566;34;20133;-67
2021/08/21 08:00:33;;;;;;;19.62;6.35;;;;;;;;;;4219463;34;20160;-67
2021/08/21 08:03:02;;;;;;;12.50;5.57;;;;;;;;;;4219358;34;20188;-68
2021/08/21 08:05:28;;;;;;;9.77;4.87;;;;;;;;;;4206982;34;20094;-68
2021/08/21 08:07:54;;;;;;;18.45;5.93;;;;;;;;;;4219496;34;20136;-69
2021/08/21 08:10:20;;;;;;;19.40;6.15;;;;;;;;;;4219378;34;20121;-68
2021/08/21 08:12:46;;;;;;;14.10;5.55;;;;;;;;;;4219271;34;20128;-68
2021/08/21 08:15:12;;;;;;;12.60;5.30;;;;;;;;;;4219379;34;20105;-68
2021/08/21 08:17:38;;;;;;;17.50;4.87;;;;;;;;;;4206135;34;20143;-67
2021/08/21 08:20:06;;;;;;;13.90;5.50;;;;;;;;;;4219320;34;20133;-68
2021/08/21 08:22:33;;;;;;;14.80;5.40;;;;;;;;;;4206202;34;20113;-68
2021/08/21 08:24:59;;;;;;;15.18;5.12;;;;;;;;;;4219560;34;20136;-67
2021/08/21 08:27:25;;;;;;;15.32;5.82;;;;;;;;;;4219445;34;20609;-67
2021/08/21 08:29:51;;;;;;;15.10;4.87;;;;;;;;;;4219175;34;20232;-67
2021/08/21 08:32:17;;;;;;;12.93;5.68;;;;;;;;;;4219339;34;20213;-67
2021/08/21 08:34:43;;;;;;;18.67;5.57;;;;;;;;;;4219246;34;20144;-67
2021/08/21 08:37:12;;;;;;;14.38;4.78;;;;;;;;;;4219033;34;20109;-68
2021/08/21 08:39:40;;;;;;;12.13;4.87;;;;;;;;;;4219110;34;20082;-67
2021/08/21 08:42:09;;;;;;;9.90;5.18;;;;;;;;;;4219098;34;20289;-67
2021/08/21 08:44:36;;;;;;;11.02;4.45;;;;;;;;;;4206370;34;20200;-67
2021/08/21 08:47:02;;;;;;;22.92;4.57;;;;;;;;;;4219138;34;20192;-68
2021/08/21 08:49:28;;;;;;;28.50;6.12;;;;;;;;;;4219069;34;20114;-69
2021/08/21 08:51:55;;;;;;;18.10;5.65;;;;;;;;;;4219184;34;20121;-70
2021/08/21 08:54:21;;;;;;;25.17;4.78;;;;;;;;;;4194908;34;20113;-68
2021/08/21 08:56:47;;;;;;;16.85;5.22;;;;;;;;;;4218868;34;20129;-68
2021/08/21 08:59:12;;;;;;;17.95;5.18;;;;;;;;;;4218935;34;20131;-68
2021/08/21 09:01:41;;;;;;;20.23;5.68;;;;;;;;;;4219051;34;20102;-67
2021/08/21 09:04:18;;;;;;;25.83;5.95;;;;;;;;;;4218358;34;20156;-67
2021/08/21 09:06:44;;;;;;;11.85;4.18;;;;;;;;;;4219100;34;20139;-66
2021/08/21 09:09:17;;;;;;;13.05;5.40;;;;;;;;;;4206018;34;20148;-67
2021/08/21 09:11:45;;;;;;;14.35;6.47;;;;;;;;;;4218807;34;20113;-68
2021/08/21 09:14:16;;;;;;;20.27;5.43;;;;;;;;;;4218760;34;20093;-67
2021/08/21 09:16:42;;;;;;;15.18;5.35;;;;;;;;;;4218725;34;20140;-68
2021/08/21 09:19:08;;;;;;;13.82;4.93;;;;;;;;;;4218573;34;20121;-67
2021/08/21 09:21:33;;;;;;;17.65;5.55;;;;;;;;;;4218639;34;20240;-67
2021/08/21 09:23:59;;;;;;;14.73;5.72;;;;;;;;;;4218725;34;20142;-67
2021/08/21 09:26:35;;;;;;;13.05;5.30;;;;;;;;;;4218612;34;20121;-67
2021/08/21 09:29:02;;;;;;;11.05;5.07;;;;;;;;;;4206783;34;20121;-67
2021/08/21 09:31:30;;;;;;;15.57;5.75;;;;;;;;;;4218867;34;20110;-67
2021/08/21 09:33:58;;;;;;;10.85;5.28;;;;;;;;;;4205884;34;20205;-67
2021/08/21 09:36:32;;;;;;;9.80;4.90;;;;;;;;;;4218807;34;20200;-67
2021/08/21 09:38:59;;;;;;;7.50;3.92;;;;;;;;;;4218690;34;20212;-67
2021/08/21 09:41:24;;;;;;;6.82;3.72;;;;;;;;;;4218490;34;20098;-67
2021/08/21 09:44:08;;;;;;;11.00;6.18;;;;;;;;;;4218445;34;20096;-67
2021/08/21 09:46:34;;;;;;;10.85;4.90;;;;;;;;;;4218561;34;20129;-67
2021/08/21 09:49:07;;;;;;;12.10;5.22;;;;;;;;;;4218492;34;20144;-67
2021/08/21 09:51:42;;;;;;;21.33;5.78;;;;;;;;;;4218606;34;20433;-67
2021/08/21 09:54:11;;;;;;;16.17;5.32;;;;;;;;;;4218453;34;20116;-67
2021/08/21 09:56:38;;;;;;;11.30;5.60;;;;;;;;;;4218297;34;20205;-67
2021/08/21 09:59:05;;;;;;;15.85;6.18;;;;;;;;;;4218392;34;20185;-67
2021/08/21 10:01:31;;;;;;;12.88;4.90;;;;;;;;;;4218278;34;20129;-67
2021/08/21 10:03:57;;;;;;;12.93;5.95;;;;;;;;;;4218235;34;20540;-68
2021/08/21 10:06:24;;;;;;;12.05;5.07;;;;;;;;;;4218174;34;20561;-67
2021/08/21 10:08:53;;;;;;;9.00;3.55;;;;;;;;;;4218229;34;20213;-67
2021/08/21 10:11:20;;;;;;;15.02;5.07;;;;;;;;;;4218498;34;20129;-67
2021/08/21 10:13:46;;;;;;;10.35;4.62;;;;;;;;;;4218493;34;20159;-66
2021/08/21 10:16:12;;;;;;;9.02;5.00;;;;;;;;;;4195977;34;20136;-66
2021/08/21 10:18:38;;;;;;;14.60;6.00;;;;;;;;;;4207041;34;20217;-66
2021/08/21 10:21:03;;;;;;;7.90;4.78;;;;;;;;;;4195962;34;20143;-66
2021/08/21 10:23:29;;;;;;;13.73;3.87;;;;;;;;;;4220400;34;20442;-66
2021/08/21 10:26:25;;;;;;;14.60;5.37;;;;;;;;;;4207320;34;20140;-66
2021/08/21 10:28:51;;;;;;;11.68;5.05;;;;;;;;;;4217615;33;20139;-66
2021/08/21 10:31:52;;;;;;;10.05;4.82;;;;;;;;;;4207342;34;20186;-67
2021/08/21 10:34:18;;;;;;;9.18;5.18;;;;;;;;;;4162810;34;20197;-66
2021/08/21 10:36:57;;;;;;;13.93;4.80;;;;;;;;;;4208281;34;20617;-66
2021/08/21 10:39:33;;;;;;;8.88;4.07;;;;;;;;;;4220181;34;20212;-66
2021/08/21 10:41:59;;;;;;;14.35;5.12;;;;;;;;;;4220323;34;20145;-66
2021/08/21 10:44:44;;;;;;;11.65;4.40;;;;;;;;;;4195719;34;20221;-66
2021/08/21 10:47:29;;;;;;;;;;;;;;;;;;4207487;34;20120;-66
2021/08/21 10:49:55;;;;;;;8.57;4.32;;;;;;;;;;4220152;34;20434;-66
2021/08/21 10:52:46;;;;;;;9.45;4.55;;;;;;;;;;4220121;34;20109;-66
2021/08/21 10:55:16;;;;;;;6.60;2.87;;;;;;;;;;4220121;34;20137;-66
2021/08/21 10:58:02;;;;;;;9.15;4.68;;;;;;;;;;4219896;34;20120;-66
2021/08/21 11:00:50;;;;;;;6.35;3.85;;;;;;;;;;4220027;34;20125;-66
2021/08/21 11:03:37;;;;;;;14.23;4.78;;;;;;;;;;4220285;34;20225;-66
2021/08/21 11:06:04;;;;;;;8.75;3.90;;;;;;;;;;4210381;34;20121;-65
2021/08/21 11:08:31;;;;;;;13.32;4.90;;;;;;;;;;4219808;34;20506;-66
2021/08/21 11:11:33;;;;;;;9.73;4.37;;;;;;;;;;4219947;34;20097;-66
2021/08/21 11:14:08;;;;;;;10.95;5.20;;;;;;;;;;4220148;34;20473;-66
2021/08/21 11:19:28;;;;;;;16.92;4.70;;;;;;;;;;4219938;34;20084;-65
2021/08/21 11:22:13;;;;;;;5.85;2.83;;;;;;;;;;4219692;34;20141;-67
2021/08/21 11:24:59;;;;;;;12.32;5.00;;;;;;;;;;4219761;34;20140;-67
2021/08/21 11:27:25;;;;;;;13.70;4.75;;;;;;;;;;4219456;34;20101;-67
2021/08/21 11:30:12;;;;;;;9.55;4.75;;;;;;;;;;4219764;34;20253;-67
2021/08/21 11:32:46;;;;;;;13.38;5.35;;;;;;;;;;4219598;34;20119;-67
2021/08/21 11:35:16;;;;;;;11.07;4.70;;;;;;;;;;4219722;34;20116;-67
2021/08/21 11:37:50;;;;;;;8.90;4.82;;;;;;;;;;4219517;34;20497;-67
2021/08/21 11:40:16;;;;;;;8.43;4.62;;;;;;;;;;4207046;34;20430;-67
2021/08/21 11:42:46;;;;;;;12.70;4.60;;;;;;;;;;4219628;34;20102;-67
2021/08/21 11:45:14;;;;;;;12.27;4.37;;;;;;;;;;4219691;34;20200;-67
2021/08/21 11:47:40;;;;;;;4.90;2.90;;;;;;;;;;4219548;34;20112;-67
2021/08/21 11:50:38;;;;;;;12.15;5.05;;;;;;;;;;4219603;34;20212;-67
2021/08/21 11:53:09;;;;;;;6.12;3.45;;;;;;;;;;4215012;34;20098;-67
2021/08/21 11:55:36;;;;;;;11.93;3.83;;;;;;;;;;4219524;34;20093;-67
2021/08/21 11:58:02;;;;;;;14.02;4.82;;;;;;;;;;4219686;34;20175;-66
2021/08/21 12:00:30;;;;;;;13.05;4.72;;;;;;;;;;4219987;34;20197;-67
2021/08/21 12:02:58;;;;;;;10.95;5.35;;;;;;;;;;4219555;34;20197;-67
2021/08/21 12:05:32;;;;;;;9.85;4.60;;;;;;;;;;4219502;34;20129;-67
2021/08/21 12:07:59;;;;;;;11.55;6.25;;;;;;;;;;4219707;34;20109;-67
2021/08/21 12:10:27;;;;;;;15.18;4.97;;;;;;;;;;4219423;34;20085;-67
2021/08/21 12:12:55;;;;;;;10.07;5.12;;;;;;;;;;4206508;34;20129;-67
2021/08/21 12:15:30;;;;;;;14.18;6.95;;;;;;;;;;4219373;34;20225;-67
2021/08/21 12:17:56;;;;;;;21.87;5.07;;;;;;;;;;4206520;34;20121;-67
2021/08/21 12:20:23;;;;;;;12.15;4.62;;;;;;;;;;4206713;34;20120;-67
2021/08/21 12:22:48;;;;;;;12.35;5.18;;;;;;;;;;4206353;34;20454;-67
2021/08/21 12:25:14;;;;;;;11.02;4.72;;;;;;;;;;4194957;34;20136;-67
2021/08/21 12:27:41;;;;;;;9.07;4.85;;;;;;;;;;4219080;34;20105;-67
2021/08/21 12:30:11;;;;;;;6.22;3.58;;;;;;;;;;4219270;34;20568;-66
2021/08/21 12:32:37;;;;;;;9.98;4.57;;;;;;;;;;4219197;34;20096;-66
2021/08/21 12:35:08;;;;;;;12.23;5.15;;;;;;;;;;4219169;34;20161;-66
2021/08/21 12:37:34;;;;;;;12.80;5.50;;;;;;;;;;4218090;34;20605;-66
2021/08/21 12:40:10;;;;;;;8.10;4.22;;;;;;;;;;4219189;34;20135;-67
2021/08/21 12:42:36;;;;;;;11.38;4.93;;;;;;;;;;4219096;34;20506;-67
2021/08/21 12:45:21;;;;;;;12.73;5.00;;;;;;;;;;4219044;34;20136;-67
2021/08/21 12:47:47;;;;;;;7.60;3.42;;;;;;;;;;4219088;34;20189;-67
2021/08/21 12:50:13;;;;;;;5.78;3.15;;;;;;;;;;4219099;34;20136;-67
2021/08/21 12:52:40;;;;;;;7.70;3.62;;;;;;;;;;4218834;34;20132;-67
2021/08/21 12:55:07;;;;;;;13.68;4.93;;;;;;;;;;4206508;34;20522;-67
2021/08/21 12:57:37;;;;;;;11.15;3.62;;;;;;;;;;4219232;34;20117;-67
2021/08/21 13:00:14;;;;;;;10.65;4.55;;;;;;;;;;4218966;34;20128;-67
2021/08/21 13:02:50;;;;;;;8.15;4.03;;;;;;;;;;4218746;34;20134;-66
2021/08/21 13:05:21;;;;;;;10.13;5.20;;;;;;;;;;4218987;34;20625;-67
2021/08/21 13:07:48;;;;;;;10.98;4.50;;;;;;;;;;4206340;34;20526;-66
2021/08/21 13:10:22;;;;;;;12.95;5.28;;;;;;;;;;4218898;34;20113;-66
2021/08/21 13:12:48;;;;;;;9.18;4.62;;;;;;;;;;4218980;34;20109;-67
2021/08/21 13:15:15;;;;;;;11.38;4.18;;;;;;;;;;4218892;34;20224;-67
2021/08/21 13:17:41;;;;;;;9.75;4.45;;;;;;;;;;4218466;34;20435;-67
2021/08/21 13:20:08;;;;;;;14.10;4.87;;;;;;;;;;4205902;34;20143;-67
2021/08/21 13:22:34;;;;;;;9.57;4.82;;;;;;;;;;4218645;34;20126;-67
2021/08/21 13:25:00;;;;;;;10.13;4.97;;;;;;;;;;4218776;34;20132;-67
2021/08/21 13:27:26;;;;;;;9.57;5.00;;;;;;;;;;4218530;34;20485;-67
2021/08/21 13:29:51;;;;;;;12.80;5.10;;;;;;;;;;4218714;34;20133;-66
2021/08/21 13:32:17;;;;;;;12.80;5.20;;;;;;;;;;4218631;34;20121;-66
2021/08/21 13:34:43;;;;;;;16.05;6.37;;;;;;;;;;4205943;34;20264;-67
2021/08/21 13:37:09;;;;;;;8.88;4.95;;;;;;;;;;4205665;34;20454;-67
2021/08/21 13:39:36;;;;;;;11.27;4.37;;;;;;;;;;4218647;34;20544;-67
2021/08/21 13:42:02;;;;;;;11.30;5.00;;;;;;;;;;4218552;34;20149;-67
2021/08/21 13:44:28;;;;;;;10.43;4.68;;;;;;;;;;4218509;34;20133;-67
2021/08/21 13:46:54;;;;;;;10.20;5.40;;;;;;;;;;4218412;34;20121;-67
2021/08/21 13:49:20;;;;;;;10.80;4.47;;;;;;;;;;4206516;34;20212;-67
2021/08/21 13:51:46;;;;;;;8.18;4.22;;;;;;;;;;4207948;34;20128;-66
2021/08/21 13:54:13;;;;;;;11.55;5.82;;;;;;;;;;4220614;34;20124;-67
2021/08/21 13:56:39;;;;;;;12.13;4.55;;;;;;;;;;4220481;34;20229;-67
2021/08/21 13:59:05;;;;;;;12.37;4.00;;;;;;;;;;4220539;34;20121;-67
2021/08/21 14:01:31;;;;;;;11.80;5.22;;;;;;;;;;4220504;34;20297;-66
2021/08/21 14:03:57;;;;;;;13.07;4.82;;;;;;;;;;4207876;34;20117;-67
2021/08/21 14:06:23;;;;;;;13.48;5.22;;;;;;;;;;4220365;34;20125;-66
2021/08/21 14:08:49;;;;;;;10.38;5.05;;;;;;;;;;4207711;34;20113;-66
2021/08/21 14:11:15;;;;;;;8.27;4.95;;;;;;;;;;4220668;34;20121;-67
2021/08/21 14:13:41;;;;;;;13.30;4.78;;;;;;;;;;4220324;34;20537;-66
2021/08/21 14:16:07;;;;;;;9.77;4.37;;;;;;;;;;4220325;34;20132;-66
2021/08/21 14:18:33;;;;;;;9.00;4.28;;;;;;;;;;4219956;34;20112;-66
2021/08/21 14:20:59;;;;;;;11.48;4.90;;;;;;;;;;4207656;34;20137;-66
2021/08/21 14:23:25;;;;;;;7.05;3.92;;;;;;;;;;4220561;34;20126;-66
2021/08/21 14:25:51;;;;;;;16.58;4.82;;;;;;;;;;4220361;34;20105;-66
2021/08/21 14:28:17;;;;;;;12.02;4.65;;;;;;;;;;4220147;34;20140;-66
2021/08/21 14:30:43;;;;;;;8.30;4.85;;;;;;;;;;4220168;34;20125;-67
2021/08/21 14:33:10;;;;;;;10.35;5.07;;;;;;;;;;4220117;34;20140;-66
2021/08/21 14:35:36;;;;;;;9.68;5.30;;;;;;;;;;4220259;34;20109;-67
2021/08/21 14:38:02;;;;;;;20.12;5.40;;;;;;;;;;4220248;34;20465;-67
2021/08/21 14:40:28;;;;;;;13.10;5.82;;;;;;;;;;4207314;34;20477;-67
2021/08/21 14:42:54;;;;;;;16.17;5.53;;;;;;;;;;4219955;34;20538;-67
2021/08/21 14:45:20;;;;;;;9.60;4.70;;;;;;;;;;4220094;34;20225;-67
2021/08/21 14:47:46;;;;;;;16.27;5.45;;;;;;;;;;4220053;34;20133;-67
2021/08/21 14:50:12;;;;;;;9.25;4.50;;;;;;;;;;4207453;34;20136;-67
2021/08/21 14:52:38;;;;;;;12.57;4.85;;;;;;;;;;4220186;34;20133;-67
2021/08/21 14:55:05;;;;;;;11.75;4.72;;;;;;;;;;4219995;34;20173;-67